Time;durP1;ratioP1;P1;durP2;ratioP2;P2;SDS_P1;SDS_P2;PMS_P1;PMS_P2;Temp;Humidity;BMP_temperature;BMP_pressure;BME280_temperature;BME280_humidity;BME280_pressure;Samples;Min_cycle;Max_cycle;Signal;HPM_P1;HPM_P2
2023/05/16 00:00:09;;;;;;;5.13;2.60;;;;;;;;;;5075962;28;20032;-63
2023/05/16 00:02:36;;;;;;;6.43;3.05;;;;;;;;;;5076184;28;20083;-63
2023/05/16 00:05:03;;;;;;;4.22;3.00;;;;;;;;;;5075964;28;20020;-63
2023/05/16 00:07:29;;;;;;;3.45;2.80;;;;;;;;;;5075807;28;20028;-63
2023/05/16 00:09:55;;;;;;;3.50;2.90;;;;;;;;;;5075756;28;20361;-63
2023/05/16 00:12:21;;;;;;;4.60;3.05;;;;;;;;;;5075949;28;20036;-63
2023/05/16 00:14:47;;;;;;;4.00;2.65;;;;;;;;;;5075702;28;20033;-63
2023/05/16 00:17:13;;;;;;;4.85;2.70;;;;;;;;;;5075573;28;20031;-63
2023/05/16 00:19:39;;;;;;;3.75;2.88;;;;;;;;;;5075643;28;20029;-63
2023/05/16 00:22:05;;;;;;;4.30;2.95;;;;;;;;;;5075439;28;20028;-63
2023/05/16 00:24:31;;;;;;;4.60;3.15;;;;;;;;;;5075760;28;20070;-62
2023/05/16 00:26:57;;;;;;;4.13;2.72;;;;;;;;;;5075645;28;20021;-63
2023/05/16 00:29:25;;;;;;;5.97;3.42;;;;;;;;;;5075464;28;20095;-63
2023/05/16 00:31:51;;;;;;;4.57;2.90;;;;;;;;;;5075287;28;20464;-63
2023/05/16 00:34:16;;;;;;;5.00;3.25;;;;;;;;;;5075495;28;20047;-63
2023/05/16 00:36:42;;;;;;;4.53;2.90;;;;;;;;;;5075168;28;20060;-63
2023/05/16 00:39:10;;;;;;;3.95;2.67;;;;;;;;;;5075223;28;20035;-63
2023/05/16 00:41:35;;;;;;;6.82;2.50;;;;;;;;;;5075076;28;20042;-62
2023/05/16 00:44:01;;;;;;;6.63;2.80;;;;;;;;;;5075165;28;20480;-63
2023/05/16 00:46:26;;;;;;;3.97;2.55;;;;;;;;;;5075077;28;20029;-63
2023/05/16 00:48:52;;;;;;;4.15;3.03;;;;;;;;;;5075017;28;20082;-63
2023/05/16 00:51:18;;;;;;;5.50;2.78;;;;;;;;;;5075264;28;20077;-63
2023/05/16 00:53:43;;;;;;;4.22;2.97;;;;;;;;;;5074968;28;20028;-63
2023/05/16 00:56:09;;;;;;;4.38;2.60;;;;;;;;;;5075184;28;20441;-64
2023/05/16 00:58:35;;;;;;;7.03;3.08;;;;;;;;;;5074763;28;20059;-63
2023/05/16 01:01:02;;;;;;;2.60;2.40;;;;;;;;;;5074632;28;20123;-63
2023/05/16 01:03:28;;;;;;;5.25;3.05;;;;;;;;;;5074648;28;20565;-63
2023/05/16 01:05:54;;;;;;;4.90;2.63;;;;;;;;;;5074573;28;20107;-63
2023/05/16 01:08:20;;;;;;;6.65;2.72;;;;;;;;;;5074650;28;20021;-63
2023/05/16 01:11:15;;;;;;;4.50;2.58;;;;;;;;;;5074574;28;20461;-63
2023/05/16 01:14:02;;;;;;;3.67;2.83;;;;;;;;;;5074552;28;20079;-63
2023/05/16 01:16:47;;;;;;;3.58;2.60;;;;;;;;;;5073366;28;20115;-63
2023/05/16 01:19:41;;;;;;;6.53;2.90;;;;;;;;;;5074467;28;20021;-63
2023/05/16 01:22:27;;;;;;;4.40;2.70;;;;;;;;;;5074408;28;20052;-63
2023/05/16 01:25:04;;;;;;;5.43;2.75;;;;;;;;;;5074391;28;20533;-63
2023/05/16 01:27:30;;;;;;;3.97;2.53;;;;;;;;;;5074632;28;20089;-63
2023/05/16 01:29:56;;;;;;;3.17;2.60;;;;;;;;;;5074286;28;20016;-63
2023/05/16 01:32:22;;;;;;;3.97;2.60;;;;;;;;;;5074212;28;20028;-63
2023/05/16 01:34:49;;;;;;;3.80;2.45;;;;;;;;;;5074236;28;20024;-63
2023/05/16 01:37:31;;;;;;;5.28;2.70;;;;;;;;;;5074170;28;20116;-63
2023/05/16 01:40:04;;;;;;;3.72;2.50;;;;;;;;;;5074017;28;20032;-63
2023/05/16 01:42:33;;;;;;;5.03;2.95;;;;;;;;;;5073758;28;20056;-63
2023/05/16 01:45:12;;;;;;;4.38;2.60;;;;;;;;;;5073939;28;20039;-63
2023/05/16 01:47:41;;;;;;;4.45;2.50;;;;;;;;;;5073986;28;20021;-63
2023/05/16 01:50:11;;;;;;;3.45;2.78;;;;;;;;;;5073899;28;20469;-63
2023/05/16 01:52:48;;;;;;;3.53;2.55;;;;;;;;;;5073931;28;20021;-63
2023/05/16 01:55:22;;;;;;;3.40;2.55;;;;;;;;;;5073837;28;20033;-63
2023/05/16 01:57:49;;;;;;;5.55;2.70;;;;;;;;;;5073752;28;20593;-63
2023/05/16 02:00:15;;;;;;;4.13;2.60;;;;;;;;;;5073728;28;20032;-63
2023/05/16 02:02:40;;;;;;;4.13;2.92;;;;;;;;;;5073484;28;20523;-63
2023/05/16 02:05:06;;;;;;;4.53;2.42;;;;;;;;;;5073825;28;20024;-63
2023/05/16 02:07:32;;;;;;;3.70;2.40;;;;;;;;;;5073504;28;20028;-63
2023/05/16 02:09:58;;;;;;;3.60;2.47;;;;;;;;;;5073369;28;20074;-63
2023/05/16 02:12:24;;;;;;;2.78;2.10;;;;;;;;;;5073502;28;20033;-63
2023/05/16 02:14:49;;;;;;;3.83;2.60;;;;;;;;;;5073357;28;20111;-63
2023/05/16 02:17:15;;;;;;;5.22;2.88;;;;;;;;;;5073586;28;20047;-63
2023/05/16 02:19:40;;;;;;;4.72;2.55;;;;;;;;;;5072833;28;20372;-63
2023/05/16 02:22:06;;;;;;;3.15;2.38;;;;;;;;;;5073436;28;20419;-63
2023/05/16 02:24:31;;;;;;;2.42;2.20;;;;;;;;;;5073434;28;20461;-63
2023/05/16 02:26:57;;;;;;;3.63;2.33;;;;;;;;;;5073358;28;20064;-63
2023/05/16 02:29:23;;;;;;;3.45;2.33;;;;;;;;;;5073300;28;20028;-63
2023/05/16 02:31:48;;;;;;;3.63;2.47;;;;;;;;;;5073057;28;20032;-63
2023/05/16 02:34:14;;;;;;;2.80;2.47;;;;;;;;;;5072999;28;20477;-63
2023/05/16 02:36:40;;;;;;;4.47;2.33;;;;;;;;;;5072822;28;20025;-63
2023/05/16 02:39:07;;;;;;;6.20;2.72;;;;;;;;;;5072901;28;20025;-63
2023/05/16 02:41:33;;;;;;;2.85;2.38;;;;;;;;;;5072562;28;20472;-63
2023/05/16 02:43:58;;;;;;;3.65;2.90;;;;;;;;;;5073121;28;20039;-63
2023/05/16 02:46:29;;;;;;;3.65;2.20;;;;;;;;;;5072790;28;20029;-63
2023/05/16 02:48:55;;;;;;;3.25;2.47;;;;;;;;;;5073033;28;20036;-63
2023/05/16 02:51:23;;;;;;;3.03;2.20;;;;;;;;;;5072674;28;20028;-63
2023/05/16 02:53:49;;;;;;;3.40;2.38;;;;;;;;;;5072629;28;20032;-63
2023/05/16 02:56:15;;;;;;;2.97;2.30;;;;;;;;;;5072602;28;20047;-63
2023/05/16 02:58:41;;;;;;;3.45;2.53;;;;;;;;;;5072641;28;20017;-63
2023/05/16 03:01:06;;;;;;;4.25;2.40;;;;;;;;;;5072802;28;20043;-63
2023/05/16 03:03:34;;;;;;;3.33;2.22;;;;;;;;;;5072463;28;20094;-63
2023/05/16 03:06:00;;;;;;;4.80;2.95;;;;;;;;;;5072566;28;20029;-63
2023/05/16 03:08:25;;;;;;;3.97;2.40;;;;;;;;;;5072494;28;20044;-63
2023/05/16 03:10:51;;;;;;;3.25;2.38;;;;;;;;;;5072461;28;20032;-63
2023/05/16 03:13:17;;;;;;;4.38;2.35;;;;;;;;;;5072438;28;20062;-63
2023/05/16 03:15:43;;;;;;;3.40;2.45;;;;;;;;;;5072411;28;20025;-63
2023/05/16 03:18:10;;;;;;;3.78;2.33;;;;;;;;;;5072710;28;20028;-63
2023/05/16 03:20:36;;;;;;;3.10;2.55;;;;;;;;;;5072281;28;20403;-63
2023/05/16 03:23:02;;;;;;;3.88;2.25;;;;;;;;;;5072460;28;20044;-63
2023/05/16 03:25:28;;;;;;;3.00;2.50;;;;;;;;;;5081624;28;20107;-63
2023/05/16 03:27:53;;;;;;;3.75;2.53;;;;;;;;;;5092374;28;20115;-63
2023/05/16 03:30:19;;;;;;;2.47;2.13;;;;;;;;;;5092307;28;20039;-63
2023/05/16 03:32:45;;;;;;;3.78;2.10;;;;;;;;;;5092356;28;20032;-63
2023/05/16 03:35:11;;;;;;;3.35;2.17;;;;;;;;;;5092641;28;20020;-63
2023/05/16 03:37:38;;;;;;;3.90;2.30;;;;;;;;;;5092616;28;20417;-63
2023/05/16 03:40:04;;;;;;;4.32;2.60;;;;;;;;;;5092652;28;20145;-63
2023/05/16 03:42:31;;;;;;;3.13;2.30;;;;;;;;;;5092270;28;20504;-63
2023/05/16 03:44:56;;;;;;;4.47;2.35;;;;;;;;;;5092480;28;20024;-63
2023/05/16 03:47:22;;;;;;;2.50;2.30;;;;;;;;;;5092261;28;20387;-63
2023/05/16 03:49:47;;;;;;;2.88;2.13;;;;;;;;;;5092434;28;20089;-63
2023/05/16 03:52:13;;;;;;;5.82;2.20;;;;;;;;;;5092506;28;20035;-62
2023/05/16 03:54:39;;;;;;;3.15;2.40;;;;;;;;;;5092337;28;20068;-63
2023/05/16 03:57:05;;;;;;;2.42;2.17;;;;;;;;;;5092404;28;20460;-63
2023/05/16 03:59:30;;;;;;;2.38;2.15;;;;;;;;;;5092176;28;20020;-63
2023/05/16 04:01:57;;;;;;;3.17;2.30;;;;;;;;;;5092309;28;20380;-63
2023/05/16 04:04:22;;;;;;;4.00;2.40;;;;;;;;;;5091996;28;20020;-63
2023/05/16 04:06:48;;;;;;;3.33;2.30;;;;;;;;;;5092341;28;20039;-63
2023/05/16 04:09:13;;;;;;;2.80;2.20;;;;;;;;;;5092354;28;20481;-63
2023/05/16 04:11:39;;;;;;;4.38;2.75;;;;;;;;;;5092014;28;20635;-63
2023/05/16 04:14:05;;;;;;;2.45;2.17;;;;;;;;;;5091941;28;20035;-63
2023/05/16 04:16:30;;;;;;;2.30;2.00;;;;;;;;;;5091941;28;20035;-63
2023/05/16 04:18:56;;;;;;;3.50;2.25;;;;;;;;;;5090959;28;20024;-62
2023/05/16 04:21:21;;;;;;;3.85;2.58;;;;;;;;;;5091781;28;20103;-62
2023/05/16 04:23:47;;;;;;;3.97;1.98;;;;;;;;;;5091842;28;20454;-63
2023/05/16 04:26:13;;;;;;;4.10;2.58;;;;;;;;;;5091750;28;20031;-62
2023/05/16 04:28:40;;;;;;;2.53;2.25;;;;;;;;;;5091745;28;20066;-63
2023/05/16 04:31:06;;;;;;;3.72;2.30;;;;;;;;;;5091784;28;20070;-63
2023/05/16 04:33:32;;;;;;;4.65;2.38;;;;;;;;;;5090450;28;20117;-62
2023/05/16 04:35:58;;;;;;;2.88;2.13;;;;;;;;;;5091621;28;20109;-63
2023/05/16 04:38:24;;;;;;;3.42;2.42;;;;;;;;;;5091549;28;20024;-63
2023/05/16 04:40:50;;;;;;;3.65;2.47;;;;;;;;;;5091693;28;20074;-63
2023/05/16 04:43:16;;;;;;;2.90;2.22;;;;;;;;;;5094686;28;20067;-62
2023/05/16 04:45:42;;;;;;;3.20;2.20;;;;;;;;;;5095400;28;20032;-63
2023/05/16 04:48:07;;;;;;;2.38;2.00;;;;;;;;;;5095260;28;20075;-63
2023/05/16 04:50:33;;;;;;;4.90;3.13;;;;;;;;;;5095287;28;20172;-62
2023/05/16 04:52:58;;;;;;;4.50;2.60;;;;;;;;;;5094968;28;20239;-62
2023/05/16 04:55:24;;;;;;;2.65;2.10;;;;;;;;;;5094989;28;20077;-61
2023/05/16 04:57:49;;;;;;;3.97;2.20;;;;;;;;;;5095392;28;20031;-62
2023/05/16 05:00:16;;;;;;;2.38;2.05;;;;;;;;;;5094456;28;20128;-63
2023/05/16 05:02:42;;;;;;;3.88;2.45;;;;;;;;;;5095192;28;20028;-62
2023/05/16 05:05:08;;;;;;;2.50;2.30;;;;;;;;;;5094663;28;20121;-63
2023/05/16 05:07:33;;;;;;;3.85;2.20;;;;;;;;;;5094416;28;20044;-63
2023/05/16 05:09:59;;;;;;;2.70;2.13;;;;;;;;;;5094678;28;20078;-63
2023/05/16 05:12:26;;;;;;;4.15;2.30;;;;;;;;;;5094670;28;20085;-63
2023/05/16 05:14:52;;;;;;;4.63;2.55;;;;;;;;;;5094808;28;20533;-63
2023/05/16 05:17:19;;;;;;;3.80;2.33;;;;;;;;;;5093719;28;20032;-63
2023/05/16 05:19:45;;;;;;;5.47;2.72;;;;;;;;;;5093963;28;20031;-63
2023/05/16 05:22:11;;;;;;;6.75;2.65;;;;;;;;;;5094119;28;20077;-63
2023/05/16 05:24:37;;;;;;;3.75;2.55;;;;;;;;;;5094717;28;20028;-63
2023/05/16 05:27:03;;;;;;;5.72;2.45;;;;;;;;;;5094258;28;20472;-63
2023/05/16 05:29:28;;;;;;;3.53;2.50;;;;;;;;;;5094328;28;20024;-64
2023/05/16 05:31:54;;;;;;;3.95;2.47;;;;;;;;;;5094332;28;20028;-63
2023/05/16 05:34:20;;;;;;;3.50;2.50;;;;;;;;;;5094395;28;20047;-63
2023/05/16 05:36:45;;;;;;;3.33;2.53;;;;;;;;;;5094526;28;20028;-63
2023/05/16 05:39:11;;;;;;;3.80;2.30;;;;;;;;;;5094685;28;20032;-61
2023/05/16 05:41:37;;;;;;;3.88;2.72;;;;;;;;;;5088991;28;20464;-63
2023/05/16 05:44:02;;;;;;;2.88;2.38;;;;;;;;;;5094310;28;20032;-63
2023/05/16 05:46:28;;;;;;;4.43;2.70;;;;;;;;;;5094114;28;20020;-63
2023/05/16 05:48:54;;;;;;;4.75;2.70;;;;;;;;;;5094541;28;20028;-63
2023/05/16 05:51:20;;;;;;;3.90;2.50;;;;;;;;;;5093570;28;20526;-63
2023/05/16 05:53:46;;;;;;;2.67;2.40;;;;;;;;;;5093418;28;20150;-63
2023/05/16 05:56:11;;;;;;;3.63;2.50;;;;;;;;;;5093104;28;20503;-63
2023/05/16 05:58:38;;;;;;;3.15;2.58;;;;;;;;;;5093979;28;20024;-63
2023/05/16 06:01:04;;;;;;;4.15;2.45;;;;;;;;;;5094087;28;20032;-63
2023/05/16 06:03:29;;;;;;;4.53;2.63;;;;;;;;;;5093837;28;20480;-63
2023/05/16 06:05:55;;;;;;;5.13;2.55;;;;;;;;;;5094104;28;20036;-64
2023/05/16 06:08:20;;;;;;;5.88;2.80;;;;;;;;;;5094125;28;20027;-64
2023/05/16 06:10:46;;;;;;;3.28;2.65;;;;;;;;;;5093923;28;20380;-64
2023/05/16 06:13:12;;;;;;;6.40;2.95;;;;;;;;;;5094177;28;20028;-64
2023/05/16 06:15:37;;;;;;;3.15;2.65;;;;;;;;;;5093651;28;20016;-63
2023/05/16 06:18:03;;;;;;;4.28;2.60;;;;;;;;;;5093946;28;20032;-63
2023/05/16 06:20:29;;;;;;;3.50;2.60;;;;;;;;;;5093599;28;20170;-63
2023/05/16 06:22:55;;;;;;;4.90;2.70;;;;;;;;;;5093417;28;20028;-63
2023/05/16 06:25:21;;;;;;;5.53;2.88;;;;;;;;;;5093493;28;20474;-63
2023/05/16 06:27:46;;;;;;;5.45;3.10;;;;;;;;;;5093798;28;20024;-63
2023/05/16 06:30:12;;;;;;;3.78;3.47;;;;;;;;;;5093408;28;20031;-64
2023/05/16 06:32:39;;;;;;;4.32;2.83;;;;;;;;;;5093328;28;20024;-63
2023/05/16 06:35:05;;;;;;;3.22;2.53;;;;;;;;;;5092003;28;20032;-63
2023/05/16 06:37:31;;;;;;;3.75;2.95;;;;;;;;;;5093332;28;20024;-63
2023/05/16 06:39:58;;;;;;;4.75;3.20;;;;;;;;;;5091927;28;20085;-63
2023/05/16 06:42:23;;;;;;;3.58;2.60;;;;;;;;;;5093055;28;20158;-63
2023/05/16 06:44:49;;;;;;;5.15;2.90;;;;;;;;;;5093083;28;20051;-63
2023/05/16 06:47:15;;;;;;;4.55;2.90;;;;;;;;;;5093114;28;20095;-63
2023/05/16 06:49:41;;;;;;;2.85;2.55;;;;;;;;;;5092908;28;20107;-63
2023/05/16 06:52:06;;;;;;;3.53;2.60;;;;;;;;;;5092887;28;20020;-63
2023/05/16 06:54:32;;;;;;;4.63;2.67;;;;;;;;;;5093258;28;20024;-63
2023/05/16 06:56:57;;;;;;;4.78;2.97;;;;;;;;;;5092930;28;20103;-63
2023/05/16 06:59:23;;;;;;;6.97;3.10;;;;;;;;;;5093216;28;20123;-63
2023/05/16 07:01:49;;;;;;;3.00;2.70;;;;;;;;;;5092683;28;20039;-64
2023/05/16 07:04:15;;;;;;;6.50;2.65;;;;;;;;;;5092684;28;20030;-63
2023/05/16 07:06:40;;;;;;;4.60;2.85;;;;;;;;;;5091416;28;20107;-64
2023/05/16 07:09:06;;;;;;;3.83;2.67;;;;;;;;;;5091446;28;20130;-64
2023/05/16 07:11:31;;;;;;;3.63;2.60;;;;;;;;;;5092818;28;20032;-64
2023/05/16 07:13:57;;;;;;;3.42;3.00;;;;;;;;;;5092600;28;20028;-64
2023/05/16 07:16:23;;;;;;;4.15;2.53;;;;;;;;;;5091614;28;20020;-64
2023/05/16 07:18:48;;;;;;;4.28;2.90;;;;;;;;;;5089610;28;20016;-64
2023/05/16 07:21:14;;;;;;;5.45;2.72;;;;;;;;;;5091084;28;20032;-64
2023/05/16 07:23:40;;;;;;;4.10;3.00;;;;;;;;;;5090914;28;20491;-64
2023/05/16 07:26:05;;;;;;;3.92;2.85;;;;;;;;;;5090950;28;20107;-64
2023/05/16 07:28:31;;;;;;;3.65;3.00;;;;;;;;;;5090917;28;20108;-64
2023/05/16 07:30:57;;;;;;;3.17;2.88;;;;;;;;;;5090892;28;20074;-64
2023/05/16 07:33:23;;;;;;;3.30;2.67;;;;;;;;;;5090898;28;20028;-64
2023/05/16 07:35:50;;;;;;;4.45;2.80;;;;;;;;;;5090776;28;20028;-64
2023/05/16 07:38:15;;;;;;;3.80;2.85;;;;;;;;;;5090924;28;20077;-64
2023/05/16 07:40:41;;;;;;;4.13;2.72;;;;;;;;;;5088313;28;20028;-64
2023/05/16 07:43:07;;;;;;;3.28;2.90;;;;;;;;;;5070392;28;20132;-64
2023/05/16 07:45:32;;;;;;;6.72;3.03;;;;;;;;;;5070510;28;20043;-64
2023/05/16 07:47:59;;;;;;;3.15;2.83;;;;;;;;;;5070870;28;20106;-64
2023/05/16 07:50:24;;;;;;;4.05;2.80;;;;;;;;;;5070646;28;20055;-64
2023/05/16 07:52:51;;;;;;;3.67;2.72;;;;;;;;;;5070458;28;20425;-64
2023/05/16 07:55:16;;;;;;;5.90;2.90;;;;;;;;;;5070677;28;20070;-64
2023/05/16 07:57:42;;;;;;;3.40;2.65;;;;;;;;;;5070243;28;20024;-64
2023/05/16 08:00:08;;;;;;;3.72;2.95;;;;;;;;;;5070572;28;20056;-64
2023/05/16 08:02:34;;;;;;;3.83;2.97;;;;;;;;;;5070379;28;20028;-64
2023/05/16 08:05:00;;;;;;;5.13;2.97;;;;;;;;;;5070485;28;20037;-64
2023/05/16 08:07:26;;;;;;;5.50;3.05;;;;;;;;;;5070412;28;20491;-63
2023/05/16 08:09:52;;;;;;;6.15;3.17;;;;;;;;;;5070303;28;20056;-63
2023/05/16 08:12:17;;;;;;;3.55;2.83;;;;;;;;;;5070252;28;20032;-63
2023/05/16 08:14:43;;;;;;;4.85;2.95;;;;;;;;;;5070591;28;20024;-63
2023/05/16 08:17:09;;;;;;;4.72;3.20;;;;;;;;;;5071910;28;20051;-64
2023/05/16 08:19:34;;;;;;;3.70;2.90;;;;;;;;;;5073943;28;20017;-63
2023/05/16 08:22:00;;;;;;;3.90;3.08;;;;;;;;;;5074213;28;20045;-63
2023/05/16 08:24:26;;;;;;;6.53;3.17;;;;;;;;;;5073846;28;20092;-64
2023/05/16 08:26:52;;;;;;;4.53;3.35;;;;;;;;;;5074127;28;20039;-64
2023/05/16 08:29:17;;;;;;;5.55;3.22;;;;;;;;;;5074062;28;20393;-64
2023/05/16 08:31:43;;;;;;;5.05;3.63;;;;;;;;;;5074224;28;20473;-64
2023/05/16 08:34:09;;;;;;;4.20;3.10;;;;;;;;;;5073803;28;20039;-64
2023/05/16 08:36:36;;;;;;;6.60;3.00;;;;;;;;;;5073757;28;20024;-64
2023/05/16 08:39:02;;;;;;;4.30;3.20;;;;;;;;;;5073863;28;20036;-63
2023/05/16 08:41:28;;;;;;;5.00;3.17;;;;;;;;;;5073935;28;20024;-64
2023/05/16 08:43:54;;;;;;;5.05;3.17;;;;;;;;;;5073694;28;20293;-64
2023/05/16 08:46:21;;;;;;;3.70;3.30;;;;;;;;;;5073816;28;20331;-64
2023/05/16 08:48:53;;;;;;;4.07;3.25;;;;;;;;;;5073521;28;20076;-63
2023/05/16 08:51:19;;;;;;;;;;;;;;;;;;5074216;28;20377;-64
2023/05/16 08:53:51;;;;;;;5.85;3.65;;;;;;;;;;5073461;28;19943;-64
2023/05/16 08:56:17;;;;;;;4.72;3.33;;;;;;;;;;5073508;28;20075;-64
2023/05/16 08:58:43;;;;;;;5.38;3.58;;;;;;;;;;5072127;28;20028;-64
2023/05/16 09:01:09;;;;;;;6.22;3.58;;;;;;;;;;5073358;28;20032;-64
2023/05/16 09:03:36;;;;;;;3.85;3.35;;;;;;;;;;5073642;28;20070;-64
2023/05/16 09:06:05;;;;;;;4.90;3.60;;;;;;;;;;5073178;28;20021;-64
2023/05/16 09:08:31;;;;;;;5.50;3.53;;;;;;;;;;5073644;28;20112;-64
2023/05/16 09:10:56;;;;;;;4.88;3.28;;;;;;;;;;5073400;28;20433;-64
2023/05/16 09:13:23;;;;;;;5.63;3.70;;;;;;;;;;5073231;28;20074;-65
2023/05/16 09:16:13;;;;;;;5.55;3.67;;;;;;;;;;5073045;28;20051;-64
2023/05/16 09:18:41;;;;;;;4.53;3.15;;;;;;;;;;5072988;28;20036;-64
2023/05/16 09:21:09;;;;;;;5.65;3.42;;;;;;;;;;5073092;28;20060;-64
2023/05/16 09:23:35;;;;;;;5.28;3.65;;;;;;;;;;5073036;28;20411;-64
2023/05/16 09:26:02;;;;;;;5.78;3.50;;;;;;;;;;5071657;28;20039;-64
2023/05/16 09:28:28;;;;;;;6.82;4.05;;;;;;;;;;5072674;28;20024;-65
2023/05/16 09:30:54;;;;;;;5.35;3.38;;;;;;;;;;5073057;28;20032;-64
2023/05/16 09:33:23;;;;;;;5.72;3.75;;;;;;;;;;5072607;28;20041;-64
2023/05/16 09:35:59;;;;;;;5.50;3.53;;;;;;;;;;5072535;28;20020;-64
2023/05/16 09:38:26;;;;;;;5.18;3.72;;;;;;;;;;5072632;28;20120;-64
2023/05/16 09:40:55;;;;;;;4.90;3.60;;;;;;;;;;5072860;28;20052;-65
2023/05/16 09:43:25;;;;;;;6.55;3.95;;;;;;;;;;5072235;28;20136;-63
2023/05/16 09:45:52;;;;;;;4.25;3.55;;;;;;;;;;5072383;28;20033;-64
2023/05/16 09:48:18;;;;;;;5.15;3.65;;;;;;;;;;5072398;28;20107;-63
2023/05/16 09:50:52;;;;;;;14.25;3.92;;;;;;;;;;5072314;28;20028;-64
2023/05/16 09:53:34;;;;;;;10.20;4.07;;;;;;;;;;5072849;28;20503;-64
2023/05/16 09:56:09;;;;;;;5.28;3.67;;;;;;;;;;5072300;28;20036;-64
2023/05/16 09:58:37;;;;;;;5.43;3.80;;;;;;;;;;5072472;28;20036;-64
2023/05/16 10:01:04;;;;;;;5.40;3.88;;;;;;;;;;5072436;28;20103;-64
2023/05/16 10:03:31;;;;;;;6.90;4.10;;;;;;;;;;5072335;28;20449;-64
2023/05/16 10:05:59;;;;;;;7.85;4.30;;;;;;;;;;5071938;28;20130;-63
2023/05/16 10:08:25;;;;;;;6.15;3.90;;;;;;;;;;5072282;28;20098;-64
2023/05/16 10:10:54;;;;;;;9.50;4.10;;;;;;;;;;5072006;28;20410;-63
2023/05/16 10:13:28;;;;;;;5.50;3.90;;;;;;;;;;5071896;28;20041;-63
2023/05/16 10:15:59;;;;;;;5.65;3.90;;;;;;;;;;5071864;28;20025;-64
2023/05/16 10:18:29;;;;;;;7.25;4.28;;;;;;;;;;5071973;28;20024;-64
2023/05/16 10:20:56;;;;;;;5.63;3.83;;;;;;;;;;5072144;28;20025;-62
2023/05/16 10:23:24;;;;;;;5.45;3.60;;;;;;;;;;5071954;28;20036;-64
2023/05/16 10:25:51;;;;;;;7.90;4.05;;;;;;;;;;5071662;28;20032;-64
2023/05/16 10:28:17;;;;;;;8.63;3.92;;;;;;;;;;5071721;28;20563;-64
2023/05/16 10:30:44;;;;;;;6.22;3.78;;;;;;;;;;5071738;28;20060;-63
2023/05/16 10:33:18;;;;;;;5.70;3.83;;;;;;;;;;5071663;28;20036;-64
2023/05/16 10:35:45;;;;;;;7.30;3.75;;;;;;;;;;5071388;28;20032;-63
2023/05/16 10:38:13;;;;;;;6.13;3.72;;;;;;;;;;5071551;28;20357;-67
2023/05/16 10:40:39;;;;;;;5.07;3.80;;;;;;;;;;5070664;28;20028;-65
2023/05/16 10:43:07;;;;;;;8.60;3.70;;;;;;;;;;5071345;28;20052;-64
2023/05/16 10:45:32;;;;;;;9.57;4.20;;;;;;;;;;5071557;28;20454;-64
2023/05/16 10:48:08;;;;;;;7.75;4.10;;;;;;;;;;5071381;28;20107;-66
2023/05/16 10:50:44;;;;;;;5.38;3.75;;;;;;;;;;5070876;28;20531;-64
2023/05/16 10:53:20;;;;;;;7.00;3.83;;;;;;;;;;5071504;28;20063;-63
2023/05/16 10:55:58;;;;;;;4.63;3.80;;;;;;;;;;5071027;28;20028;-64
2023/05/16 10:58:39;;;;;;;5.07;3.47;;;;;;;;;;5071392;28;20029;-66
2023/05/16 11:01:24;;;;;;;5.53;3.92;;;;;;;;;;5071254;28;20068;-66
2023/05/16 11:03:56;;;;;;;6.93;4.15;;;;;;;;;;5069694;28;20032;-66
2023/05/16 11:06:22;;;;;;;5.60;3.63;;;;;;;;;;5079719;28;20035;-65
2023/05/16 11:09:18;;;;;;;6.10;3.72;;;;;;;;;;5091292;28;20039;-65
2023/05/16 11:11:51;;;;;;;4.85;3.65;;;;;;;;;;5077905;28;20468;-66
2023/05/16 11:14:31;;;;;;;6.13;4.00;;;;;;;;;;5091560;28;20396;-64
2023/05/16 11:17:39;;;;;;;6.07;3.90;;;;;;;;;;5089921;28;20031;-65
2023/05/16 11:20:05;;;;;;;5.85;3.97;;;;;;;;;;5027949;28;20404;-66
2023/05/16 11:22:40;;;;;;;13.23;3.78;;;;;;;;;;5027375;28;20040;-64
2023/05/16 11:25:07;;;;;;;6.03;3.70;;;;;;;;;;5063011;28;20040;-65
2023/05/16 11:27:46;;;;;;;10.05;4.22;;;;;;;;;;5090426;28;20127;-63
2023/05/16 11:30:14;;;;;;;7.20;4.00;;;;;;;;;;5090951;28;20036;-66
2023/05/16 11:32:42;;;;;;;6.00;4.03;;;;;;;;;;5091036;28;20016;-65
2023/05/16 11:35:12;;;;;;;8.20;4.10;;;;;;;;;;5090672;28;20030;-64
2023/05/16 11:37:40;;;;;;;6.10;3.85;;;;;;;;;;5090865;28;20032;-63
2023/05/16 11:40:08;;;;;;;9.25;3.95;;;;;;;;;;5091061;28;20106;-66
2023/05/16 11:42:44;;;;;;;20.73;6.13;;;;;;;;;;5090755;28;20055;-67
2023/05/16 11:45:24;;;;;;;17.25;6.40;;;;;;;;;;5091002;28;20081;-65
2023/05/16 11:47:50;;;;;;;24.25;6.57;;;;;;;;;;5090883;28;20388;-64
2023/05/16 11:50:18;;;;;;;14.35;5.03;;;;;;;;;;5091019;28;20059;-64
2023/05/16 11:52:52;;;;;;;11.45;5.05;;;;;;;;;;5091874;28;20111;-65
2023/05/16 11:55:20;;;;;;;11.20;4.63;;;;;;;;;;5093849;28;20036;-64
2023/05/16 11:57:46;;;;;;;6.22;4.50;;;;;;;;;;5094667;28;20068;-66
2023/05/16 12:00:16;;;;;;;8.85;5.00;;;;;;;;;;5094702;28;20062;-64
2023/05/16 12:02:48;;;;;;;11.38;4.82;;;;;;;;;;5094665;28;20043;-64
2023/05/16 12:05:16;;;;;;;11.35;4.95;;;;;;;;;;5094631;28;20483;-66
2023/05/16 12:07:46;;;;;;;10.38;4.55;;;;;;;;;;5094718;28;20051;-64
2023/05/16 12:10:15;;;;;;;9.85;5.53;;;;;;;;;;5094679;28;20055;-64
2023/05/16 12:12:46;;;;;;;7.97;4.45;;;;;;;;;;5093125;28;20052;-64
2023/05/16 12:15:13;;;;;;;12.20;5.70;;;;;;;;;;5093308;28;20077;-65
2023/05/16 12:17:40;;;;;;;11.68;5.30;;;;;;;;;;5094441;28;20031;-64
2023/05/16 12:20:11;;;;;;;12.80;5.35;;;;;;;;;;5094730;28;20043;-64
2023/05/16 12:22:40;;;;;;;13.65;5.70;;;;;;;;;;5093341;28;20027;-63
2023/05/16 12:25:24;;;;;;;16.80;5.78;;;;;;;;;;5094407;28;20024;-65
2023/05/16 12:27:56;;;;;;;9.48;5.28;;;;;;;;;;5094157;28;20032;-66
2023/05/16 12:30:24;;;;;;;12.18;6.05;;;;;;;;;;5094327;28;20032;-63
2023/05/16 12:32:55;;;;;;;18.45;5.50;;;;;;;;;;5078047;28;20107;-64
2023/05/16 12:35:21;;;;;;;9.27;5.28;;;;;;;;;;5072401;28;20021;-65
2023/05/16 12:37:50;;;;;;;11.93;5.18;;;;;;;;;;5073898;28;20036;-65
2023/05/16 12:40:16;;;;;;;10.52;5.82;;;;;;;;;;5073910;28;20514;-66
2023/05/16 12:42:45;;;;;;;21.75;5.93;;;;;;;;;;5073384;28;20053;-64
2023/05/16 12:45:16;;;;;;;15.73;6.43;;;;;;;;;;5073786;28;20542;-62
2023/05/16 12:47:41;;;;;;;13.80;6.90;;;;;;;;;;5073492;28;20046;-64
2023/05/16 12:50:16;;;;;;;12.48;5.57;;;;;;;;;;5073446;28;20032;-63
2023/05/16 12:52:58;;;;;;;11.07;5.57;;;;;;;;;;5073739;28;20105;-64
2023/05/16 12:55:25;;;;;;;12.55;5.25;;;;;;;;;;5075178;28;20048;-63
2023/05/16 12:57:50;;;;;;;12.13;5.57;;;;;;;;;;5074860;28;20154;-65
2023/05/16 13:00:18;;;;;;;9.98;5.72;;;;;;;;;;5074726;28;20032;-63
2023/05/16 13:02:45;;;;;;;9.77;5.53;;;;;;;;;;5072383;28;20037;-62
2023/05/16 13:05:10;;;;;;;12.13;5.25;;;;;;;;;;5073361;28;20032;-63
2023/05/16 13:07:39;;;;;;;13.20;5.57;;;;;;;;;;5073448;28;20025;-64
2023/05/16 13:10:09;;;;;;;12.00;5.45;;;;;;;;;;5073080;28;20495;-64
2023/05/16 13:12:35;;;;;;;;;;;;;;;;;;5073518;28;20032;-65
2023/05/16 13:15:01;;;;;;;8.45;5.13;;;;;;;;;;5073131;28;20007;-65
2023/05/16 13:17:29;;;;;;;12.27;5.40;;;;;;;;;;5073196;28;20499;-65
2023/05/16 13:19:55;;;;;;;11.07;5.75;;;;;;;;;;5071855;28;20131;-63
2023/05/16 13:22:20;;;;;;;13.13;5.65;;;;;;;;;;5071511;28;20140;-64
2023/05/16 13:24:46;;;;;;;12.75;5.97;;;;;;;;;;5072793;28;20549;-63
2023/05/16 13:27:15;;;;;;;13.02;6.07;;;;;;;;;;5072748;28;20028;-65
2023/05/16 13:29:41;;;;;;;14.98;5.78;;;;;;;;;;5072827;28;20092;-63
2023/05/16 13:32:07;;;;;;;10.80;5.05;;;;;;;;;;5072709;28;20169;-65
2023/05/16 13:34:33;;;;;;;15.52;5.50;;;;;;;;;;5072674;28;20044;-63
2023/05/16 13:36:58;;;;;;;13.50;5.63;;;;;;;;;;5072728;28;20028;-63
2023/05/16 13:39:24;;;;;;;12.30;5.90;;;;;;;;;;5092086;28;20110;-62
2023/05/16 13:41:50;;;;;;;11.15;5.88;;;;;;;;;;5092339;28;20915;-64
2023/05/16 13:44:17;;;;;;;11.43;5.68;;;;;;;;;;5091444;28;20113;-63
2023/05/16 13:46:43;;;;;;;18.02;6.22;;;;;;;;;;5091724;28;20062;-63
2023/05/16 13:49:08;;;;;;;13.95;5.90;;;;;;;;;;5092708;28;20035;-63
2023/05/16 13:51:34;;;;;;;10.73;5.63;;;;;;;;;;5092957;28;20032;-63
2023/05/16 13:53:59;;;;;;;14.63;5.75;;;;;;;;;;5092862;28;20369;-63
2023/05/16 13:56:25;;;;;;;10.20;5.65;;;;;;;;;;5092383;28;20394;-62
2023/05/16 13:58:51;;;;;;;11.95;5.85;;;;;;;;;;5092710;28;20103;-63
2023/05/16 14:01:17;;;;;;;11.07;5.13;;;;;;;;;;5092522;28;20577;-62
2023/05/16 14:03:42;;;;;;;10.38;6.28;;;;;;;;;;5092398;28;20481;-62
2023/05/16 14:06:09;;;;;;;11.93;5.00;;;;;;;;;;5088016;28;20025;-63
2023/05/16 14:08:34;;;;;;;14.85;5.53;;;;;;;;;;5072040;28;20032;-63
2023/05/16 14:11:00;;;;;;;10.77;5.68;;;;;;;;;;5072036;28;20028;-63
2023/05/16 14:13:25;;;;;;;12.63;5.55;;;;;;;;;;5071652;28;20036;-64
2023/05/16 14:15:51;;;;;;;11.77;5.72;;;;;;;;;;5071613;28;20031;-62
2023/05/16 14:18:16;;;;;;;11.60;5.50;;;;;;;;;;5071778;28;20605;-63
2023/05/16 14:20:42;;;;;;;10.02;4.97;;;;;;;;;;5071835;28;20032;-63
2023/05/16 14:23:08;;;;;;;12.20;5.75;;;;;;;;;;5071532;28;20033;-62
2023/05/16 14:25:33;;;;;;;9.98;5.38;;;;;;;;;;5071690;28;20107;-63
2023/05/16 14:27:59;;;;;;;12.30;5.78;;;;;;;;;;5071653;28;20101;-62
2023/05/16 14:30:25;;;;;;;9.60;5.18;;;;;;;;;;5072814;28;20032;-64
2023/05/16 14:32:50;;;;;;;11.93;5.85;;;;;;;;;;5092033;28;20107;-64
2023/05/16 14:35:16;;;;;;;9.80;5.47;;;;;;;;;;5091507;28;20154;-63
2023/05/16 14:37:42;;;;;;;11.07;6.00;;;;;;;;;;5091753;28;20036;-64
2023/05/16 14:40:08;;;;;;;8.35;5.60;;;;;;;;;;5091981;28;20032;-64
2023/05/16 14:42:33;;;;;;;10.27;5.65;;;;;;;;;;5089149;28;20055;-63